• Join FlightAware (Why Join?)
  • Login
  • US Flag 
07:42AM EST


 

Airport Tracker/Info


-or-


 

Live Flight TrackerFlight Track Log ✈ UPS1337 ✈ 10-Jun-2014 ✈ KPIE - KSDF

Flight Track Log - Related Links

Times and Time Zones

All times are in EDT time to prevent confusion due to time zone crossing. See the UPS1337 flight status page for this flight to view local times or setup timezone preferences in your user account.

Time Position Orientation Groundspeed Altitude Reporting Facility
EDT Latitude Longitude Course Direction KTS MPH feet Rate Location/Type
09:51PM 27.9000 -82.6833 180° South 165 190 600  Level Tampa TRACON
09:52PM 27.8667 -82.6833 180° South 172 198 2,600 2,220 Climbing Tampa TRACON
09:53PM 27.8167 -82.6833 180° South 242 278 4,400 2,520 Climbing Tampa TRACON
09:54PM 27.8167 -82.7667 270° West 288 331 7,700 2,340 Climbing Tampa TRACON
09:56PM 27.9978 -82.7856 355° North 348 400 12,000 1,980 Climbing Miami Center
09:57PM 28.1122 -82.7939 356° North 402 463 14,100 2,520 Climbing Miami Center
09:58PM 28.2500 -82.8072 355° North 409 471 17,200 2,700 Climbing Miami Center
09:59PM 28.3703 -82.8169 356° North 427 491 19,600 2,280 Climbing Miami Center
10:00PM 28.4939 -82.8364 352° North 447 514 21,900 1,920 Climbing Miami Center
10:01PM 28.6258 -82.8761 345° North 451 519 23,700 1,680 Climbing Jacksonville Center
10:02PM 28.7531 -82.9114 346° North 456 525 25,500 1,860 Climbing Jacksonville Center
10:04PM 29.0108 -83.0011 343° North 486 559 29,200 1,800 Climbing Miami Center
10:05PM 29.1406 -83.0497 342° North 486 559 30,900 1,500 Climbing Miami Center
10:06PM 29.2714 -83.0986 342° North 491 565 32,400 1,380 Climbing Miami Center
10:07PM 29.4028 -83.1478 342° North 491 565 33,800 780 Climbing Miami Center
10:08PM 29.5336 -83.1964 342° North 491 565 34,000 60 Climbing Miami Center
10:09PM 29.6753 -83.2511 341° North 492 566 34,000  Level Jacksonville Center
10:14PM 30.3231 -83.4952 342° North 509 586 34,000  Level FlightAware ADS-B (KTLH)
10:15PM 30.4255 -83.5342 342° North 510 587 34,000  Level FlightAware ADS-B (KTLH)
10:15PM 30.5209 -83.5705 342° North 508 585 34,000  Level FlightAware ADS-B (KTLH)
10:16PM 30.5988 -83.6003 342° North 505 581 34,000  Level FlightAware ADS-B (KTLH)
10:16PM 30.6632 -83.6216 348° North 504 580 34,000  Level FlightAware ADS-B (KTLH)
10:17PM 30.7541 -83.6439 348° North 506 582 34,000  Level FlightAware ADS-B (KTLH)
10:18PM 30.8253 -83.6613 348° North 507 583 34,000  Level FlightAware ADS-B (KTLH)
10:19PM 30.9928 -83.7019 348° North 509 586 34,000  Level FlightAware ADS-B (KTLH)
10:19PM 31.0664 -83.7197 348° North 509 586 34,000  Level FlightAware ADS-B (KTLH)
10:21PM 31.3046 -83.7776 348° North 509 586 34,000  Level FlightAware ADS-B (KTLH)
10:22PM 31.4019 -83.8028 348° North 504 580 34,000  Level Atlanta Center
10:23PM 31.5461 -83.8414 347° North 504 580 34,000  Level Atlanta Center
10:24PM 31.6547 -83.8681 348° North 498 573 34,000  Level Atlanta Center
10:25PM 31.8217 -83.9094 348° North 504 580 34,000  Level Atlanta Center
10:26PM 31.9533 -83.9408 349° North 498 573 34,000  Level Atlanta Center
10:27PM 32.0867 -83.9728 349° North 488 562 34,000  Level Atlanta Center
10:28PM 32.2161 -84.0192 343° North 483 556 34,000  Level Atlanta Center
10:29PM 32.3456 -84.0733 341° North 483 556 34,000  Level Atlanta Center
10:30PM 32.4814 -84.1053 349° North 488 562 34,000  Level Atlanta Center
10:31PM 32.6150 -84.1375 349° North 488 562 34,000  Level Atlanta Center
10:32PM 32.7339 -84.1672 348° North 488 562 34,000  Level Atlanta Center
10:33PM 32.8717 -84.2019 348° North 488 562 34,000  Level Atlanta Center
10:34PM 33.0114 -84.2369 348° North 493 567 34,000  Level Atlanta Center
10:35PM 33.1492 -84.2694 349° North 498 573 34,000  Level Atlanta Center
10:41PM 33.9955 -84.4806 348° North 509 586 34,000  Level FlightAware ADS-B (KDZJ)
10:41PM 34.0868 -84.5038 348° North 507 583 34,000  Level FlightAware ADS-B (KDZJ)
10:42PM 34.1821 -84.5278 348° North 506 582 34,000  Level FlightAware ADS-B (KDZJ)
10:43PM 34.2755 -84.5426 354° North 520 598 34,000  Level FlightAware ADS-B (KDZJ)
10:43PM 34.3714 -84.5554 354° North 517 595 34,000  Level FlightAware ADS-B (KDZJ)
10:44PM 34.4655 -84.5678 354° North 502 578 34,000  Level FlightAware ADS-B (KDZJ)
10:45PM 34.5609 -84.5790 355° North 501 577 34,000  Level FlightAware ADS-B (KDZJ)
10:45PM 34.6539 -84.5895 355° North 515 593 34,000  Level FlightAware ADS-B (KDZJ)
10:46PM 34.7487 -84.6002 355° North 517 595 34,000  Level FlightAware ADS-B (KDZJ)
10:47PM 34.8446 -84.6115 355° North 516 594 34,000  Level FlightAware ADS-B (KDZJ)
10:47PM 34.9393 -84.6225 355° North 516 594 34,000  Level FlightAware ADS-B (KDZJ)
10:48PM 35.0365 -84.6339 355° North 520 598 34,000  Level FlightAware ADS-B (KDZJ)
10:49PM 35.1314 -84.6452 355° North 518 596 34,000  Level FlightAware ADS-B (KDZJ)
10:49PM 35.2251 -84.6563 354° North 520 598 34,000 -300 Level FlightAware ADS-B (KDZJ)
10:55PM 35.2071 -84.6541 355° North 525 604 32,200 -840 Descending FlightAware ADS-B (KMDQ)
11:01PM 36.8537 -84.8524 354° North 523 602 24,700 -1,380 Descending FlightAware ADS-B (KBRY)
11:02PM 37.0959 -84.8736 North 501 577 21,600 -2,100 Descending FlightAware ADS-B (KBRY)
11:04PM 37.2566 -84.8420 10° North 488 562 18,900 -2,400 Descending FlightAware ADS-B (KBRY)
11:05PM 37.4104 -84.8106 10° North 462 532 16,100 -1,440 Descending FlightAware ADS-B (KBRY)
11:07PM 37.6400 -84.7583 10° North 375 432 14,400 -1,020 Descending FlightAware ADS-B (KBRY)
11:08PM 37.7281 -84.8060 296° West 303 349 13,000 -1,500 Descending FlightAware ADS-B (KBRY)
11:09PM 37.7193 -84.8958 235° Southwest 258 297 11,500 -1,080 Descending FlightAware ADS-B (KBRY)
11:10PM 37.6712 -84.9523 257° West 264 304 10,900 -660 Descending FlightAware ADS-B (KBRY)
11:11PM 37.7076 -85.0331 316° Northwest 306 352 10,200 -360 Descending FlightAware ADS-B (KBRY)
11:12PM 37.7694 -85.1107 314° West 302 348 10,200  Level FlightAware ADS-B (KBRY)
11:13PM 37.8363 -85.2121 303° West 292 336 10,200  Level FlightAware ADS-B (KBRY)
11:14PM 37.8777 -85.2942 302° West 292 336 10,200 -60 Level FlightAware ADS-B (KBRY)
11:15PM 37.9224 -85.3835 303° West 290 334 10,100 -900 Descending FlightAware ADS-B (KBRY)
11:16PM 37.9635 -85.4659 302° West 284 327 8,500 -1,500 Descending FlightAware ADS-B (KBRY)
11:17PM 38.0073 -85.5533 302° West 276 318 7,100 -1,200 Descending FlightAware ADS-B (KBRY)
11:18PM 38.0493 -85.6354 303° West 273 314 6,100 -480 Descending FlightAware ADS-B (KBRY)
11:19PM 38.0927 -85.7220 302° West 272 313 6,200  Climbing FlightAware ADS-B (KBRY)
11:20PM 38.1337 -85.8051 302° West 274 315 6,200 -660 Level FlightAware ADS-B (KBRY)
11:21PM 38.1895 -85.8635 341° North 288 331 4,900 -1,080 Descending FlightAware ADS-B (KBRY)
11:22PM 38.2588 -85.8920 342° North 280 322 4,200 -780 Descending FlightAware ADS-B (EHVB)
11:22PM 38.2765 -85.8995 341° North 243 280 4,100  Descending FlightAware ADS-B (EHVB)
11:23PM 38.3023 -85.9090 346° North 227 261 4,200 120 Climbing FlightAware ADS-B (EHVB)
11:23PM 38.3170 -85.9135 347° North 223 257 4,200  Level FlightAware ADS-B (EHVB)
11:24PM 38.3459 -85.9223 347° North 222 255 4,200  Level FlightAware ADS-B (EHVB)
11:24PM 38.3748 -85.9306 353° North 224 258 4,200 -180 Level FlightAware ADS-B (EHVB)
11:24PM 38.3856 -85.9290 23° Northeast 222 255 4,100  Descending FlightAware ADS-B (EHVB)
11:24PM 38.3971 -85.9190 50° Northeast 216 249 4,200 240 Climbing FlightAware ADS-B (EHVB)
11:24PM 38.4015 -85.9091 70° East 209 241 4,200  Level FlightAware ADS-B (EHVB)
11:25PM 38.4101 -85.8773 71° East 207 238 4,200  Level FlightAware ADS-B (EHVB)
11:25PM 38.4120 -85.8696 82° East 203 234 4,200  Level FlightAware ADS-B (EHVB)
11:25PM 38.4114 -85.8505 105° East 193 222 4,200  Level FlightAware ADS-B (EHVB)
11:26PM 38.4024 -85.8340 137° Southeast 178 205 4,200  Level FlightAware ADS-B (EHVB)
11:26PM 38.3916 -85.8227 148° Southeast 173 199 4,200  Level FlightAware ADS-B (EHVB)
11:26PM 38.3738 -85.8114 161° South 166 191 4,200 -840 Level FlightAware ADS-B (EHVB)
11:27PM 38.3593 -85.8057 164° South 163 188 3,600 -960 Descending FlightAware ADS-B (EHVB)
11:28PM 38.3114 -85.7900 164° South 167 192 2,800 -540 Descending Indianapolis Center
11:29PM 38.2731 -85.7781 166° South 155 178 2,400 -300 Descending Indianapolis Center
11:30PM 38.2353 -85.7667 167° South 152 175 2,300 -120 Descending Indianapolis Center